Flight Track Log - Related Links

Times and Time Zones

All times are in EDT time to prevent confusion due to time zone crossing. See the ADR726 flight status page for this flight to view local times or setup timezone preferences in your user account.

Time Position Orientation Groundspeed Altitude Reporting Facility
EDT Latitude Longitude Course Direction KTS MPH feet Rate Location/Type
Fri 05:13:00 PM 45.7108 15.0751 140° Southeast  Level Estimated
Fri 05:14:00 PM 45.6251 15.1769 140° Southeast  Level Estimated
Fri 05:15:00 PM 45.5392 15.2784 140° Southeast  Level Estimated
Fri 05:16:00 PM 45.4532 15.3796 140° Southeast  Level Estimated
Fri 05:17:00 PM 45.3671 15.4805 141° Southeast  Level Estimated
Fri 05:18:00 PM 45.2810 15.5810 141° Southeast  Level Estimated
Fri 05:19:00 PM 45.1948 15.6813 141° Southeast  Level Estimated
Fri 05:20:00 PM 45.1084 15.7813 141° Southeast  Level Estimated
Fri 05:21:00 PM 45.0220 15.8809 141° Southeast  Level Estimated
Fri 05:22:00 PM 44.9355 15.9803 141° Southeast  Level Estimated
Fri 05:23:00 PM 44.8489 16.0794 141° Southeast  Level Estimated
Fri 05:24:00 PM 44.7623 16.1781 141° Southeast  Level Estimated
Fri 05:25:00 PM 44.6755 16.2766 141° Southeast  Level Estimated
Fri 05:26:00 PM 44.5887 16.3748 141° Southeast  Level Estimated
Fri 05:27:00 PM 44.5017 16.4727 141° Southeast  Level Estimated
Fri 05:28:00 PM 44.4147 16.5702 141° Southeast  Level Estimated
Fri 05:29:00 PM 44.3276 16.6675 141° Southeast  Level Estimated
Fri 05:30:00 PM 44.2405 16.7646 141° Southeast  Level Estimated
Fri 05:31:00 PM 44.1532 16.8613 141° Southeast  Level Estimated
Fri 05:32:00 PM 44.0659 16.9577 142° Southeast  Level Estimated
Fri 05:33:00 PM 43.9785 17.0539 142° Southeast  Level Estimated
Fri 05:34:00 PM 43.8910 17.1497 142° Southeast  Level Estimated
Fri 05:35:00 PM 43.8034 17.2453 142° Southeast  Level Estimated
Fri 05:36:00 PM 43.7157 17.3406 142° Southeast  Level Estimated
Fri 05:37:00 PM 43.6280 17.4357 142° Southeast  Level Estimated
Fri 05:38:00 PM 43.5402 17.5304 142° Southeast  Level Estimated
Fri 05:39:00 PM 43.4523 17.6249 142° Southeast  Level Estimated
Fri 05:40:00 PM 43.3643 17.7191 142° Southeast  Level Estimated
Fri 05:41:00 PM 43.2763 17.8130 142° Southeast  Level Estimated
Fri 05:42:00 PM 43.1881 17.9067 142° Southeast  Level Estimated
Fri 05:43:00 PM 43.0999 18.0001 142° Southeast  Level Estimated
Fri 05:44:00 PM 43.0117 18.0932 142° Southeast  Level Estimated
Fri 05:45:00 PM 42.9233 18.1861 142° Southeast  Level Estimated
Fri 05:46:00 PM 42.8349 18.2787 142° Southeast  Level Estimated
Fri 05:47:00 PM 42.7464 18.3710 143° Southeast  Level Estimated
Fri 05:48:00 PM 42.6578 18.4630 143° Southeast  Level Estimated
Fri 05:49:00 PM 42.5692 18.5548 143° Southeast  Level Estimated
Fri 05:50:00 PM 42.4804 18.6464 143° Southeast  Level Estimated
Fri 05:51:00 PM 42.3917 18.7377 143° Southeast  Level Estimated
Fri 05:52:00 PM 42.3028 18.8287 143° Southeast  Level Estimated
Fri 05:53:00 PM 42.2138 18.9194 143° Southeast  Level Estimated
Fri 05:54:00 PM 42.1248 19.0100 143° Southeast  Level Estimated
Fri 05:55:00 PM 42.0358 19.1002 143° Southeast  Level Estimated
Fri 05:56:00 PM 41.9466 19.1902 143° Southeast  Level Estimated
Fri 05:57:00 PM 41.8574 19.2799 143° Southeast  Level Estimated
Fri 05:58:00 PM 41.7681 19.3694 143° Southeast  Level Estimated
Fri 05:59:00 PM 41.6787 19.4587 143° Southeast  Level Estimated
Fri 06:00:00 PM 41.5893 19.5477 143° Southeast  Level Estimated
Fri 06:01:00 PM 41.4998 19.6365 143° Southeast  Level Estimated
Fri 06:02:00 PM 41.4147 19.7206 143° Southeast  Level Estimated
Fri 06:03:00 PM 41.4147 19.7206 21° North  Level Estimated
Fri 06:04:00 PM 41.4147 19.7206 21° North  Level Estimated
Fri 06:05:00 PM 41.4147 19.7206 21° North  Level Estimated
Fri 06:06:00 PM 41.4147 19.7206 21° North  Level Estimated
Fri 06:07:00 PM 41.4147 19.7206 21° North  Level Estimated
Fri 06:08:00 PM 41.4147 19.7206 21° North  Level Estimated
Fri 06:09:00 PM 41.4147 19.7206 21° North  Level Estimated
Fri 06:10:00 PM 41.4147 19.7206 21° North  Level Estimated
Fri 06:11:00 PM 41.4147 19.7206 21° North  Level Estimated
Fri 06:12:00 PM 41.4147 19.7206 21° North  Level Estimated
Fri 06:13:00 PM 41.4147 19.7206 21° North  Level Estimated
Fri 06:14:00 PM 41.4147 19.7206 21° North  Level Estimated
Fri 06:15:00 PM 41.4147 19.7206 21° North  Level Estimated
Fri 06:16:00 PM 41.4147 19.7206 21° North  Level Estimated
Fri 06:17:00 PM 41.4147 19.7206 21° North  Level Estimated

Login

Don't have an account? Register now (free) for customized features, flight alerts, and more!